.
WxDataArchive / Data Records for 2006-02-01
2006-01-31 February 2006 2006-02-02

Data Records for Wednesday, 01 February 2006

Time	Temp	Chill	HIndex	Humid	Dewpt	 Wind 	HiWind	WindDir	Rain 	Barom 
-----	----	-----	------	-----	-----	------	------	-------	-----	----- 
00:00	29.0	29.0	29.0	83	24.5	0	0	---	0.00	29.956 
00:05	28.7	28.7	28.7	84	24.5	0	0	---	0.00	29.956 
00:10	28.5	28.5	28.5	85	24.6	0	0	---	0.00	29.956 
00:15	28.4	28.4	28.4	85	24.5	0	0	---	0.00	29.954 
00:20	28.2	28.2	28.2	85	24.3	0	0	---	0.00	29.954 
00:25	28.1	28.1	28.1	86	24.5	0	0	---	0.00	29.954 
00:30	27.9	27.9	27.9	86	24.3	0	0	---	0.00	29.957 
00:35	27.8	27.8	27.8	86	24.2	0	0	---	0.00	29.957 
00:40	27.6	27.6	27.6	86	24.0	0	0	---	0.00	29.957 
00:45	27.6	27.6	27.6	87	24.2	0	0	---	0.00	29.951 
00:50	27.6	27.6	27.6	87	24.2	0	0	---	0.00	29.951 
00:55	27.5	27.5	27.5	87	24.1	0	0	---	0.00	29.951 
01:00	27.5	27.5	27.5	87	24.1	0	0	---	0.00	29.945 
01:05	27.5	27.5	27.5	88	24.4	0	1	158	0.00	29.945 
01:10	27.6	27.6	27.6	87	24.2	0	1	158	0.00	29.945 
01:15	27.6	27.6	27.6	87	24.2	0	0	---	0.00	29.934 
01:20	27.5	27.5	27.5	87	24.1	0	0	---	0.00	29.934 
01:25	27.5	27.5	27.5	88	24.4	0	1	158	0.00	29.934 
01:30	27.6	27.6	27.6	88	24.5	0	1	158	0.00	29.936 
01:35	27.8	27.8	27.8	88	24.7	0	1	158	0.00	29.936 
01:40	28.1	28.1	28.1	88	25.0	0	0	---	0.00	29.936 
01:45	28.4	28.4	28.4	88	25.3	0	1	135	0.00	29.937 
01:50	28.7	28.7	28.7	87	25.3	0	3	135	0.00	29.937 
01:55	29.0	29.0	29.0	87	25.6	0	1	135	0.00	29.937 
02:00	29.1	29.1	29.1	86	25.4	0	2	135	0.00	29.936 
02:05	29.3	29.3	29.3	86	25.6	0	2	135	0.00	29.936 
02:10	29.3	29.3	29.3	86	25.6	0	1	135	0.00	29.936 
02:15	29.3	29.3	29.3	86	25.6	0	2	112	0.00	29.933 
02:20	29.4	29.4	29.4	86	25.7	0	2	112	0.00	29.933 
02:25	29.5	29.5	29.5	86	25.8	0	1	112	0.00	29.933 
02:30	29.5	29.5	29.5	86	25.8	0	1	112	0.00	29.937 
02:35	29.7	29.7	29.7	85	25.8	0	1	112	0.00	29.937 
02:40	29.7	29.7	29.7	85	25.8	0	1	112	0.00	29.937 
02:45	29.7	29.7	29.7	85	25.8	0	1	112	0.00	29.942 
02:50	29.7	29.7	29.7	85	25.8	0	1	112	0.00	29.942 
02:55	29.7	29.7	29.7	85	25.8	0	1	112	0.00	29.942 
03:00	29.7	29.7	29.7	85	25.8	0	1	112	0.00	29.940 
03:05	29.5	29.5	29.5	85	25.6	0	0	---	0.00	29.940 
03:10	29.5	29.5	29.5	85	25.6	0	0	---	0.00	29.940 
03:15	29.4	29.4	29.4	85	25.5	0	0	---	0.00	29.937 
03:20	29.1	29.1	29.1	85	25.2	0	0	---	0.00	29.937 
03:25	29.0	29.0	29.0	85	25.1	0	1	112	0.00	29.937 
03:30	28.8	28.8	28.8	86	25.2	0	0	---	0.00	29.932 
03:35	28.7	28.7	28.7	87	25.3	0	1	112	0.00	29.932 
03:40	28.8	28.8	28.8	87	25.4	0	1	112	0.00	29.932 
03:45	28.8	28.8	28.8	87	25.4	0	1	112	0.00	29.920 
03:50	28.8	28.8	28.8	87	25.4	0	1	112	0.00	29.920 
03:55	29.0	29.0	29.0	87	25.6	0	2	112	0.00	29.920 
04:00	29.4	29.4	29.4	86	25.7	1	2	112	0.00	29.921 
04:05	29.7	29.7	29.7	85	25.8	1	3	112	0.00	29.921 
04:10	30.0	30.0	30.0	85	26.0	0	1	112	0.00	29.921 
04:15	30.1	30.1	30.1	84	25.9	0	1	112	0.00	29.918 
04:20	30.1	30.1	30.1	85	26.1	0	1	112	0.00	29.918 
04:25	30.3	30.3	30.3	84	26.1	1	3	112	0.00	29.918 
04:30	30.3	30.3	30.3	84	26.1	1	2	135	0.00	29.910 
04:35	30.4	30.4	30.4	84	26.2	1	3	112	0.00	29.910 
04:40	30.6	30.6	30.6	84	26.4	0	2	112	0.00	29.910 
04:45	30.7	30.7	30.7	84	26.4	1	2	112	0.00	29.912 
04:50	30.7	30.7	30.7	83	26.2	0	1	112	0.00	29.912 
04:55	30.9	30.9	30.9	83	26.4	1	2	112	0.00	29.912 
05:00	30.9	30.9	30.9	83	26.4	0	2	112	0.00	29.912 
05:05	31.0	31.0	31.0	83	26.5	0	3	112	0.00	29.912 
05:10	31.0	31.0	31.0	83	26.5	0	1	112	0.00	29.912 
05:15	31.0	31.0	31.0	83	26.5	0	2	112	0.00	29.904 
05:20	31.2	31.2	31.2	83	26.6	0	2	112	0.00	29.904 
05:25	31.2	31.2	31.2	83	26.6	0	1	112	0.00	29.904 
05:30	31.2	31.2	31.2	83	26.6	0	1	112	0.00	29.906 
05:35	31.3	31.3	31.3	83	26.7	0	1	112	0.00	29.906 
05:40	31.3	31.3	31.3	82	26.5	0	2	112	0.00	29.906 
05:45	31.5	31.5	31.5	82	26.7	0	2	112	0.00	29.901 
05:50	31.5	31.5	31.5	82	26.7	1	2	112	0.00	29.901 
05:55	31.6	31.6	31.6	81	26.5	1	3	112	0.00	29.901 
06:00	31.8	31.8	31.8	81	26.6	1	3	112	0.00	29.886 
06:05	31.8	31.8	31.8	81	26.6	1	4	112	0.00	29.886 
06:10	31.8	31.8	31.8	82	26.9	1	3	112	0.00	29.886 
06:15	31.8	31.8	31.8	82	26.9	1	4	135	0.00	29.873 
06:20	31.8	31.8	31.8	82	26.9	1	3	90	0.00	29.873 
06:25	31.9	31.9	31.9	82	27.0	1	3	112	0.00	29.873 
06:30	31.9	31.9	31.9	82	27.0	1	3	112	0.00	29.871 
06:35	31.9	31.9	31.9	82	27.0	1	2	135	0.00	29.871 
06:40	32.1	32.1	32.1	81	26.9	1	3	135	0.00	29.871 
06:45	32.2	32.2	32.2	82	27.3	1	3	90	0.00	29.864 
06:50	32.2	32.2	32.2	81	27.0	1	3	112	0.00	29.864 
06:55	32.4	32.4	32.4	81	27.2	2	4	112	0.00	29.864 
07:00	32.4	32.4	32.4	81	27.2	2	4	112	0.00	29.854 
07:05	32.4	32.4	32.4	81	27.2	2	5	135	0.00	29.854 
07:10	32.5	32.5	32.5	81	27.3	2	6	135	0.00	29.854 
07:15	32.5	32.5	32.5	81	27.3	2	4	112	0.00	29.842 
07:20	32.5	32.5	32.5	82	27.6	1	5	112	0.00	29.842 
07:25	32.7	32.7	32.7	81	27.5	2	6	112	0.00	29.842 
07:30	32.7	32.7	32.7	82	27.8	1	3	112	0.00	29.839 
07:35	32.8	32.8	32.8	81	27.6	1	4	112	0.00	29.839 
07:40	32.8	32.8	32.8	81	27.6	0	2	112	0.00	29.839 
07:45	32.9	32.9	32.9	81	27.7	1	4	135	0.00	29.837 
07:50	33.1	33.1	33.1	81	27.9	1	3	112	0.00	29.837 
07:55	33.2	33.2	33.2	81	28.0	2	3	112	0.00	29.837 
08:00	33.4	33.4	33.4	80	27.9	2	5	112	0.00	29.830 
08:05	33.7	33.7	33.7	80	28.2	2	5	90	0.00	29.830 
08:10	33.8	33.8	33.8	80	28.3	2	4	112	0.00	29.830 
08:15	33.8	33.8	33.8	80	28.3	2	5	112	0.00	29.822 
08:20	34.1	34.1	34.1	79	28.3	2	5	112	0.00	29.822 
08:25	34.3	34.3	34.3	79	28.5	2	4	112	0.00	29.822 
08:30	34.3	34.3	34.3	79	28.5	1	3	112	0.00	29.818 
08:35	34.4	34.4	34.4	79	28.6	2	7	90	0.00	29.818 
08:40	34.4	34.4	34.4	79	28.6	2	3	112	0.00	29.818 
08:45	34.4	34.4	34.4	79	28.6	2	5	90	0.00	29.813 
08:50	34.6	34.6	34.6	79	28.8	2	5	90	0.00	29.813 
08:55	34.7	34.7	34.7	78	28.6	1	4	112	0.00	29.813 
09:00	34.9	34.9	34.9	78	28.7	2	5	90	0.00	29.804 
09:05	35.0	35.0	35.0	78	28.8	2	6	90	0.00	29.804 
09:10	35.2	35.2	35.2	78	29.0	2	5	90	0.00	29.804 
09:15	35.3	35.3	35.3	77	28.8	2	6	112	0.00	29.805 
09:20	35.3	35.3	35.3	78	29.1	2	5	90	0.00	29.805 
09:25	35.5	35.5	35.5	77	29.0	2	5	90	0.00	29.805 
09:30	35.5	35.5	35.5	77	29.0	2	5	112	0.00	29.795 
09:35	35.8	35.8	35.8	77	29.3	2	5	112	0.00	29.795 
09:40	36.0	36.0	36.0	77	29.5	2	5	90	0.00	29.795 
09:45	36.3	36.3	36.3	76	29.5	2	6	90	0.00	29.790 
09:50	36.8	36.8	36.8	75	29.6	2	5	90	0.00	29.790 
09:55	37.0	37.0	37.0	75	29.8	3	9	90	0.00	29.790 
10:00	37.5	34.4	37.5	74	30.0	4	10	90	0.00	29.783 
10:05	37.9	37.9	37.9	74	30.4	3	6	90	0.00	29.783 
10:10	38.3	38.3	38.3	73	30.4	3	9	90	0.00	29.783 
10:15	38.5	35.6	38.5	71	29.9	4	7	90	0.00	29.771 
10:20	38.5	38.5	38.5	72	30.3	3	6	90	0.00	29.771 
10:25	38.6	38.6	38.6	72	30.4	3	7	45	0.00	29.771 
10:30	38.8	38.8	38.8	72	30.6	3	7	90	0.00	29.770 
10:35	38.9	38.9	38.9	72	30.7	2	6	90	0.00	29.770 
10:40	39.2	39.2	39.2	71	30.6	3	10	248	0.00	29.770 
10:45	39.2	39.2	39.2	71	30.6	3	6	90	0.00	29.769 
10:50	39.3	39.3	39.3	71	30.7	2	5	90	0.00	29.769 
10:55	39.2	36.4	39.2	71	30.6	4	7	90	0.00	29.769 
11:00	39.1	39.1	39.1	72	30.8	3	9	90	0.00	29.758 
11:05	39.2	39.2	39.2	71	30.6	3	7	68	0.00	29.758 
11:10	39.3	39.3	39.3	72	31.0	3	9	68	0.00	29.758 
11:15	39.6	39.6	39.6	72	31.3	3	6	90	0.00	29.757 
11:20	39.8	37.1	39.8	72	31.5	4	7	90	0.00	29.757 
11:25	40.1	40.1	40.1	72	31.8	3	7	90	0.00	29.757 
11:30	40.6	38.0	40.6	71	31.9	4	9	90	0.00	29.742 
11:35	41.1	41.1	41.1	71	32.4	2	6	68	0.00	29.742 
11:40	41.8	41.8	41.8	69	32.4	3	6	90	0.00	29.742 
11:45	41.9	41.9	41.9	68	32.1	2	6	68	0.00	29.738 
11:50	41.9	41.9	41.9	70	32.8	2	5	90	0.00	29.738 
11:55	42.1	42.1	42.1	67	31.9	3	9	90	0.00	29.738 
12:00	42.3	42.3	42.3	68	32.5	3	6	112	0.00	29.725 
12:05	42.6	42.6	42.6	68	32.8	3	6	90	0.00	29.725 
12:10	43.2	43.2	43.2	66	32.6	3	10	292	0.00	29.725 
12:15	43.5	41.4	43.5	65	32.5	4	10	90	0.00	29.714 
12:20	44.1	42.1	44.1	66	33.5	4	12	90	0.00	29.714 
12:25	44.3	41.5	44.3	61	31.7	5	15	90	0.00	29.714 
12:30	44.3	42.3	44.3	63	32.5	4	12	202	0.00	29.698 
12:35	44.5	42.5	44.5	62	32.3	4	12	90	0.00	29.698 
12:40	44.8	44.8	44.8	63	33.0	3	10	270	0.00	29.698 
12:45	45.2	45.2	45.2	64	33.8	2	9	90	0.00	29.688 
12:50	45.4	43.6	45.4	63	33.6	4	9	90	0.00	29.688 
12:55	45.5	45.5	45.5	62	33.2	3	8	68	0.00	29.688 
13:00	45.7	43.9	45.7	62	33.4	4	9	68	0.00	29.679 
13:05	45.8	45.8	45.8	62	33.5	3	11	270	0.00	29.679 
13:10	46.1	44.4	46.1	59	32.6	4	11	270	0.00	29.679 
13:15	46.2	44.5	46.2	60	33.1	4	10	248	0.00	29.672 
13:20	46.5	46.5	46.5	61	33.8	3	11	248	0.00	29.672 
13:25	47.0	45.4	47.0	60	33.8	4	12	248	0.00	29.672 
13:30	47.3	47.3	47.3	59	33.7	3	9	90	0.00	29.666 
13:35	47.6	46.1	47.6	58	33.6	4	10	248	0.00	29.666 
13:40	48.0	46.6	48.0	57	33.5	4	12	248	0.00	29.666 
13:45	48.5	47.1	48.5	55	33.1	4	9	270	0.00	29.648 
13:50	48.9	46.9	48.9	54	33.0	5	12	270	0.00	29.648 
13:55	49.2	46.7	49.2	51	31.9	6	16	270	0.00	29.648 
14:00	49.2	46.7	49.2	52	32.3	6	14	248	0.00	29.653 
14:05	49.5	47.6	49.5	54	33.6	5	18	248	0.00	29.653 
14:10	49.6	46.3	49.6	51	32.2	8	16	270	0.00	29.653 
14:15	49.8	47.4	49.8	51	32.4	6	12	248	0.00	29.646 
14:20	50.2	50.2	50.2	52	33.3	5	14	248	0.00	29.646 
14:25	50.8	50.8	50.8	49	32.3	5	13	248	0.00	29.646 
14:30	50.8	50.8	50.8	49	32.3	6	15	248	0.00	29.645 
14:35	51.0	51.0	51.0	48	32.0	6	16	248	0.00	29.645 
14:40	51.0	51.0	51.0	48	32.0	6	14	248	0.00	29.645 
14:45	50.8	50.8	50.8	49	32.3	7	16	270	0.00	29.644 
14:50	51.1	51.1	51.1	49	32.6	4	10	248	0.00	29.644 
14:55	51.4	51.4	51.4	46	31.3	5	14	270	0.00	29.644 
15:00	51.3	51.3	51.3	47	31.8	8	16	248	0.00	29.651 
15:05	51.1	51.1	51.1	47	31.6	8	20	270	0.00	29.651 
15:10	51.0	51.0	51.0	47	31.5	7	17	270	0.00	29.651 
15:15	51.0	51.0	51.0	47	31.5	6	15	270	0.00	29.651 
15:20	50.8	50.8	50.8	48	31.8	6	14	248	0.00	29.651 
15:25	51.0	51.0	51.0	50	33.0	6	13	248	0.00	29.651 
15:30	51.3	51.3	51.3	49	32.8	5	11	248	0.00	29.650 
15:35	51.4	51.4	51.4	48	32.4	5	12	248	0.00	29.650 
15:40	51.4	51.4	51.4	49	32.9	5	11	248	0.00	29.650 
15:45	51.3	51.3	51.3	48	32.3	5	13	248	0.00	29.642 
15:50	51.4	51.4	51.4	48	32.4	5	14	248	0.00	29.642 
15:55	50.7	50.7	50.7	50	32.7	5	15	270	0.00	29.642 
16:00	50.4	50.4	50.4	51	33.0	6	12	248	0.00	29.650 
16:05	50.8	50.8	50.8	51	33.3	6	11	248	0.00	29.650 
16:10	51.0	51.0	51.0	51	33.5	5	11	248	0.00	29.650 
16:15	51.3	51.3	51.3	51	33.8	3	10	248	0.00	29.642 
16:20	51.3	51.3	51.3	50	33.3	4	10	248	0.00	29.642 
16:25	51.3	51.3	51.3	50	33.3	4	8	248	0.00	29.642 
16:30	51.6	51.6	51.6	48	32.6	5	12	248	0.00	29.646 
16:35	51.6	51.6	51.6	48	32.6	4	7	248	0.00	29.646 
16:40	51.3	51.3	51.3	45	30.7	5	13	270	0.00	29.646 
16:45	51.3	51.3	51.3	48	32.3	5	13	270	0.00	29.649 
16:50	51.3	51.3	51.3	49	32.8	4	12	248	0.00	29.649 
16:55	51.1	51.1	51.1	49	32.6	4	6	248	0.00	29.649 
17:00	51.3	51.3	51.3	49	32.8	4	9	248	0.00	29.652 
17:05	51.0	51.0	51.0	50	33.0	5	10	248	0.00	29.652 
17:10	50.7	50.7	50.7	50	32.7	4	11	248	0.00	29.652 
17:15	50.2	50.2	50.2	50	32.3	3	9	248	0.00	29.663 
17:20	50.2	50.2	50.2	50	32.3	4	9	248	0.00	29.663 
17:25	50.1	50.1	50.1	50	32.2	3	7	248	0.00	29.663 
17:30	49.8	49.8	49.8	51	32.4	2	7	248	0.00	29.665 
17:35	49.6	49.6	49.6	52	32.7	3	7	248	0.00	29.665 
17:40	49.5	48.3	49.5	51	32.1	4	7	248	0.00	29.665 
17:45	49.4	48.2	49.4	52	32.5	4	10	248	0.00	29.671 
17:50	49.2	49.2	49.2	53	32.8	2	7	248	0.00	29.671 
17:55	48.9	48.9	48.9	53	32.5	3	6	248	0.00	29.671 
18:00	48.8	48.8	48.8	54	32.9	3	9	248	0.00	29.681 
18:05	48.8	48.8	48.8	54	32.9	3	6	248	0.00	29.681 
18:10	48.5	48.5	48.5	54	32.6	3	10	248	0.00	29.681 
18:15	48.5	48.5	48.5	55	33.1	2	4	248	0.00	29.683 
18:20	48.2	48.2	48.2	55	32.8	2	3	225	0.00	29.683 
18:25	48.0	48.0	48.0	56	33.1	3	6	248	0.00	29.683 
18:30	47.9	47.9	47.9	56	33.0	2	3	248	0.00	29.696 
18:35	47.9	47.9	47.9	57	33.4	2	5	248	0.00	29.696 
18:40	47.7	47.7	47.7	57	33.2	1	3	248	0.00	29.696 
18:45	47.6	47.6	47.6	57	33.1	2	4	248	0.00	29.699 
18:50	47.4	47.4	47.4	58	33.4	1	3	248	0.00	29.699 
18:55	47.1	47.1	47.1	59	33.5	0	2	248	0.00	29.699 
19:00	46.5	46.5	46.5	60	33.4	0	1	248	0.00	29.699 
19:05	46.0	46.0	46.0	61	33.3	0	3	248	0.00	29.699 
19:10	45.5	45.5	45.5	62	33.2	0	2	248	0.00	29.699 
19:15	45.1	45.1	45.1	62	32.9	0	0	---	0.00	29.700 
19:20	44.5	44.5	44.5	63	32.7	0	0	---	0.00	29.700 
19:25	43.9	43.9	43.9	65	32.9	0	0	---	0.00	29.700 
19:30	43.2	43.2	43.2	66	32.6	0	0	---	0.00	29.703 
19:35	42.6	42.6	42.6	67	32.4	0	0	---	0.00	29.703 
19:40	42.2	42.2	42.2	69	32.8	0	0	---	0.00	29.703 
19:45	41.8	41.8	41.8	69	32.4	0	0	---	0.00	29.707 
19:50	41.5	41.5	41.5	71	32.8	0	1	248	0.00	29.707 
19:55	41.3	41.3	41.3	72	33.0	0	1	248	0.00	29.707 
20:00	41.1	41.1	41.1	73	33.1	0	1	248	0.00	29.710 
20:05	40.9	40.9	40.9	73	32.9	0	1	248	0.00	29.710 
20:10	40.8	40.8	40.8	73	32.8	0	1	248	0.00	29.710 
20:15	40.8	40.8	40.8	74	33.2	0	1	248	0.00	29.707 
20:20	40.8	40.8	40.8	74	33.2	0	1	248	0.00	29.707 
20:25	40.8	40.8	40.8	74	33.2	0	2	248	0.00	29.707 
20:30	41.1	41.1	41.1	74	33.5	1	2	248	0.00	29.710 
20:35	41.3	41.3	41.3	74	33.6	1	3	248	0.00	29.710 
20:40	41.8	41.8	41.8	73	33.8	1	3	248	0.00	29.710 
20:45	41.9	41.9	41.9	73	33.9	1	4	248	0.00	29.717 
20:50	42.2	42.2	42.2	72	33.8	2	5	248	0.00	29.717 
20:55	42.2	42.2	42.2	72	33.8	1	4	248	0.00	29.717 
21:00	42.2	42.2	42.2	72	33.8	1	3	248	0.00	29.720 
21:05	42.1	42.1	42.1	72	33.7	1	4	248	0.00	29.720 
21:10	42.1	42.1	42.1	72	33.7	1	4	248	0.00	29.720 
21:15	42.1	42.1	42.1	73	34.1	1	7	248	0.00	29.716 
21:20	42.2	42.2	42.2	72	33.8	1	3	225	0.00	29.716 
21:25	41.8	41.8	41.8	73	33.8	0	1	225	0.00	29.716 
21:30	41.5	41.5	41.5	73	33.5	1	2	248	0.00	29.720 
21:35	41.3	41.3	41.3	74	33.6	1	2	248	0.00	29.720 
21:40	41.2	41.2	41.2	75	33.9	1	4	292	0.00	29.720 
21:45	40.9	40.9	40.9	76	33.9	1	6	292	0.00	29.729 
21:50	40.5	40.5	40.5	77	33.9	1	4	270	0.00	29.729 
21:55	39.9	39.9	39.9	79	33.9	1	4	0	0.00	29.729 
22:00	39.6	39.6	39.6	79	33.6	1	2	315	0.00	29.732 
22:05	39.3	39.3	39.3	80	33.7	1	3	270	0.00	29.732 
22:10	38.9	38.9	38.9	81	33.6	1	3	270	0.00	29.732 
22:15	38.6	38.6	38.6	81	33.3	1	3	270	0.00	29.734 
22:20	38.3	38.3	38.3	82	33.3	0	1	270	0.00	29.734 
22:25	38.0	38.0	38.0	82	33.0	0	1	270	0.00	29.734 
22:30	37.8	37.8	37.8	83	33.1	0	2	270	0.00	29.737 
22:35	37.5	37.5	37.5	84	33.1	0	1	270	0.00	29.737 
22:40	37.6	37.6	37.6	84	33.2	0	2	270	0.00	29.737 
22:45	37.8	37.8	37.8	85	33.7	0	2	270	0.00	29.737 
22:50	38.0	38.0	38.0	84	33.6	0	2	270	0.00	29.737 
22:55	38.2	38.2	38.2	84	33.8	0	1	270	0.00	29.737 
23:00	38.2	38.2	38.2	84	33.8	0	1	270	0.00	29.733 
23:05	38.2	38.2	38.2	84	33.8	0	1	270	0.00	29.733 
23:10	38.0	38.0	38.0	84	33.6	0	0	---	0.00	29.733 
23:15	38.2	38.2	38.2	84	33.8	0	1	270	0.00	29.730 
23:20	38.2	38.2	38.2	84	33.8	0	1	270	0.00	29.730 
23:25	38.2	38.2	38.2	84	33.8	0	1	270	0.00	29.730 
23:30	38.2	38.2	38.2	84	33.8	0	1	270	0.00	29.730 
23:35	38.2	38.2	38.2	84	33.8	0	0	---	0.00	29.730 
23:40	38.0	38.0	38.0	84	33.6	0	0	---	0.00	29.730 
23:45	37.9	37.9	37.9	84	33.5	0	0	---	0.00	29.731 
23:50	37.8	37.8	37.8	85	33.7	0	0	---	0.00	29.731 
23:55	37.8	37.8	37.8	85	33.7	0	0	---	0.00	29.731 

CoCoRaHS
IN-AL-39
A2 Web Hosting
Creative Commons License
GoDaddy
Look for:

loaded 2017-12-12 01:53:08 • last modified 2010-11-18 10:43:29
Privacy PolicyDisclaimer
• wx.awcolley.com is powered by PmWiki v.2002016 •
• all content (unless otherwise noted) © 2017 A W Colley